sensor_id;sensor_type;location;lat;lon;timestamp;P1;durP1;ratioP1;P2;durP2;ratioP2
67757;SDS011;54562;47.620;18.786;2023-02-05T00:02:34;5.00;;;2.90;;
67757;SDS011;54562;47.620;18.786;2023-02-05T00:05:40;4.50;;;2.90;;
67757;SDS011;54562;47.620;18.786;2023-02-05T00:08:45;5.70;;;3.20;;
67757;SDS011;54562;47.620;18.786;2023-02-05T00:11:50;4.70;;;2.80;;
67757;SDS011;54562;47.620;18.786;2023-02-05T00:14:55;5.80;;;3.00;;
67757;SDS011;54562;47.620;18.786;2023-02-05T00:18:00;5.30;;;3.10;;
67757;SDS011;54562;47.620;18.786;2023-02-05T00:21:07;6.10;;;3.20;;
67757;SDS011;54562;47.620;18.786;2023-02-05T00:24:12;5.70;;;3.00;;
67757;SDS011;54562;47.620;18.786;2023-02-05T00:27:18;7.40;;;3.70;;
67757;SDS011;54562;47.620;18.786;2023-02-05T00:30:23;5.40;;;3.30;;
67757;SDS011;54562;47.620;18.786;2023-02-05T00:33:28;5.30;;;2.90;;
67757;SDS011;54562;47.620;18.786;2023-02-05T00:36:33;5.00;;;2.60;;
67757;SDS011;54562;47.620;18.786;2023-02-05T00:39:42;6.20;;;3.70;;
67757;SDS011;54562;47.620;18.786;2023-02-05T00:42:46;6.40;;;3.30;;
67757;SDS011;54562;47.620;18.786;2023-02-05T00:45:52;4.80;;;2.90;;
67757;SDS011;54562;47.620;18.786;2023-02-05T00:48:57;6.90;;;3.50;;
67757;SDS011;54562;47.620;18.786;2023-02-05T00:52:02;6.80;;;3.40;;
67757;SDS011;54562;47.620;18.786;2023-02-05T00:55:09;6.60;;;3.60;;
67757;SDS011;54562;47.620;18.786;2023-02-05T00:58:14;6.70;;;3.50;;
67757;SDS011;54562;47.620;18.786;2023-02-05T01:01:19;6.70;;;3.40;;
67757;SDS011;54562;47.620;18.786;2023-02-05T01:04:24;5.90;;;3.40;;
67757;SDS011;54562;47.620;18.786;2023-02-05T01:07:29;5.80;;;3.20;;
67757;SDS011;54562;47.620;18.786;2023-02-05T01:10:35;5.40;;;3.10;;
67757;SDS011;54562;47.620;18.786;2023-02-05T01:13:42;6.30;;;3.80;;
67757;SDS011;54562;47.620;18.786;2023-02-05T01:16:47;7.20;;;3.60;;
67757;SDS011;54562;47.620;18.786;2023-02-05T01:19:54;6.20;;;3.50;;
67757;SDS011;54562;47.620;18.786;2023-02-05T01:22:59;6.00;;;3.40;;
67757;SDS011;54562;47.620;18.786;2023-02-05T01:26:05;6.20;;;3.60;;
67757;SDS011;54562;47.620;18.786;2023-02-05T01:29:10;6.30;;;3.70;;
67757;SDS011;54562;47.620;18.786;2023-02-05T01:32:15;6.70;;;3.60;;
67757;SDS011;54562;47.620;18.786;2023-02-05T01:35:21;5.40;;;3.00;;
67757;SDS011;54562;47.620;18.786;2023-02-05T01:38:25;6.20;;;3.70;;
67757;SDS011;54562;47.620;18.786;2023-02-05T01:41:31;6.90;;;3.60;;
67757;SDS011;54562;47.620;18.786;2023-02-05T01:44:39;6.40;;;3.60;;
67757;SDS011;54562;47.620;18.786;2023-02-05T01:47:44;4.90;;;3.10;;
67757;SDS011;54562;47.620;18.786;2023-02-05T01:50:54;5.20;;;3.30;;
67757;SDS011;54562;47.620;18.786;2023-02-05T01:54:03;6.00;;;3.40;;
67757;SDS011;54562;47.620;18.786;2023-02-05T01:57:13;7.80;;;3.70;;
67757;SDS011;54562;47.620;18.786;2023-02-05T02:00:22;6.90;;;3.70;;
67757;SDS011;54562;47.620;18.786;2023-02-05T02:03:28;6.60;;;3.60;;
67757;SDS011;54562;47.620;18.786;2023-02-05T02:06:35;6.70;;;3.60;;
67757;SDS011;54562;47.620;18.786;2023-02-05T02:09:45;5.60;;;3.20;;
67757;SDS011;54562;47.620;18.786;2023-02-05T02:12:52;5.80;;;3.60;;
67757;SDS011;54562;47.620;18.786;2023-02-05T02:15:59;6.80;;;3.60;;
67757;SDS011;54562;47.620;18.786;2023-02-05T02:19:12;6.10;;;3.50;;
67757;SDS011;54562;47.620;18.786;2023-02-05T02:22:36;6.00;;;3.40;;
67757;SDS011;54562;47.620;18.786;2023-02-05T02:26:14;5.90;;;3.50;;
67757;SDS011;54562;47.620;18.786;2023-02-05T02:29:36;5.30;;;3.40;;
67757;SDS011;54562;47.620;18.786;2023-02-05T02:32:50;5.70;;;3.40;;
67757;SDS011;54562;47.620;18.786;2023-02-05T02:36:03;6.90;;;3.70;;
67757;SDS011;54562;47.620;18.786;2023-02-05T02:39:16;7.40;;;3.90;;
67757;SDS011;54562;47.620;18.786;2023-02-05T02:42:27;5.90;;;3.50;;
67757;SDS011;54562;47.620;18.786;2023-02-05T02:45:42;7.20;;;3.80;;
67757;SDS011;54562;47.620;18.786;2023-02-05T02:48:54;5.50;;;3.40;;
67757;SDS011;54562;47.620;18.786;2023-02-05T02:52:04;7.70;;;3.80;;
67757;SDS011;54562;47.620;18.786;2023-02-05T02:55:13;7.00;;;3.70;;
67757;SDS011;54562;47.620;18.786;2023-02-05T02:58:23;5.90;;;3.30;;
67757;SDS011;54562;47.620;18.786;2023-02-05T03:01:34;6.30;;;3.40;;
67757;SDS011;54562;47.620;18.786;2023-02-05T03:04:44;5.20;;;2.90;;
67757;SDS011;54562;47.620;18.786;2023-02-05T03:07:58;5.30;;;3.40;;
67757;SDS011;54562;47.620;18.786;2023-02-05T03:11:12;5.50;;;3.50;;
67757;SDS011;54562;47.620;18.786;2023-02-05T03:14:18;5.70;;;3.40;;
67757;SDS011;54562;47.620;18.786;2023-02-05T03:17:25;6.60;;;3.70;;
67757;SDS011;54562;47.620;18.786;2023-02-05T03:20:34;6.10;;;3.80;;
67757;SDS011;54562;47.620;18.786;2023-02-05T03:23:45;6.50;;;3.90;;
67757;SDS011;54562;47.620;18.786;2023-02-05T03:26:52;6.50;;;3.60;;
67757;SDS011;54562;47.620;18.786;2023-02-05T03:29:57;6.70;;;3.50;;
67757;SDS011;54562;47.620;18.786;2023-02-05T03:33:10;6.60;;;3.90;;
67757;SDS011;54562;47.620;18.786;2023-02-05T03:36:34;5.90;;;3.50;;
67757;SDS011;54562;47.620;18.786;2023-02-05T03:39:53;5.80;;;3.40;;
67757;SDS011;54562;47.620;18.786;2023-02-05T03:43:12;6.00;;;3.60;;
67757;SDS011;54562;47.620;18.786;2023-02-05T03:46:32;7.70;;;3.80;;
67757;SDS011;54562;47.620;18.786;2023-02-05T03:49:49;6.90;;;3.40;;
67757;SDS011;54562;47.620;18.786;2023-02-05T03:53:06;9.00;;;3.90;;
67757;SDS011;54562;47.620;18.786;2023-02-05T03:56:26;6.20;;;3.50;;
67757;SDS011;54562;47.620;18.786;2023-02-05T03:59:37;7.10;;;3.80;;
67757;SDS011;54562;47.620;18.786;2023-02-05T04:02:43;6.80;;;3.70;;
67757;SDS011;54562;47.620;18.786;2023-02-05T04:05:48;7.00;;;4.00;;
67757;SDS011;54562;47.620;18.786;2023-02-05T04:08:53;7.80;;;4.50;;
67757;SDS011;54562;47.620;18.786;2023-02-05T04:11:58;7.40;;;4.00;;
67757;SDS011;54562;47.620;18.786;2023-02-05T04:15:04;8.50;;;4.70;;
67757;SDS011;54562;47.620;18.786;2023-02-05T04:18:11;7.30;;;4.20;;
67757;SDS011;54562;47.620;18.786;2023-02-05T04:21:16;7.40;;;4.10;;
67757;SDS011;54562;47.620;18.786;2023-02-05T04:24:20;7.70;;;3.90;;
67757;SDS011;54562;47.620;18.786;2023-02-05T04:27:26;7.00;;;4.10;;
67757;SDS011;54562;47.620;18.786;2023-02-05T04:30:31;7.60;;;4.50;;
67757;SDS011;54562;47.620;18.786;2023-02-05T04:33:36;7.10;;;3.90;;
67757;SDS011;54562;47.620;18.786;2023-02-05T04:36:41;6.50;;;4.10;;
67757;SDS011;54562;47.620;18.786;2023-02-05T04:39:48;6.80;;;4.00;;
67757;SDS011;54562;47.620;18.786;2023-02-05T04:42:53;6.40;;;4.00;;
67757;SDS011;54562;47.620;18.786;2023-02-05T04:45:58;7.60;;;4.50;;
67757;SDS011;54562;47.620;18.786;2023-02-05T04:49:08;8.10;;;4.60;;
67757;SDS011;54562;47.620;18.786;2023-02-05T04:52:13;7.60;;;4.10;;
67757;SDS011;54562;47.620;18.786;2023-02-05T04:55:18;7.80;;;4.40;;
67757;SDS011;54562;47.620;18.786;2023-02-05T04:58:23;7.20;;;4.20;;
67757;SDS011;54562;47.620;18.786;2023-02-05T05:01:28;6.80;;;4.10;;
67757;SDS011;54562;47.620;18.786;2023-02-05T05:04:34;8.30;;;4.40;;
67757;SDS011;54562;47.620;18.786;2023-02-05T05:07:39;7.40;;;4.30;;
67757;SDS011;54562;47.620;18.786;2023-02-05T05:10:45;7.90;;;4.30;;
67757;SDS011;54562;47.620;18.786;2023-02-05T05:13:49;7.00;;;3.80;;
67757;SDS011;54562;47.620;18.786;2023-02-05T05:16:54;6.00;;;3.50;;
67757;SDS011;54562;47.620;18.786;2023-02-05T05:20:00;5.90;;;3.80;;
67757;SDS011;54562;47.620;18.786;2023-02-05T05:23:06;7.00;;;3.90;;
67757;SDS011;54562;47.620;18.786;2023-02-05T05:26:12;7.90;;;4.10;;
67757;SDS011;54562;47.620;18.786;2023-02-05T05:29:17;6.40;;;4.20;;
67757;SDS011;54562;47.620;18.786;2023-02-05T05:32:22;6.80;;;4.00;;
67757;SDS011;54562;47.620;18.786;2023-02-05T05:35:27;6.90;;;3.90;;
67757;SDS011;54562;47.620;18.786;2023-02-05T05:38:32;6.80;;;4.10;;
67757;SDS011;54562;47.620;18.786;2023-02-05T05:41:38;7.70;;;4.30;;
67757;SDS011;54562;47.620;18.786;2023-02-05T05:45:01;6.80;;;3.80;;
67757;SDS011;54562;47.620;18.786;2023-02-05T05:48:06;6.50;;;4.10;;
67757;SDS011;54562;47.620;18.786;2023-02-05T05:51:11;6.80;;;4.20;;
67757;SDS011;54562;47.620;18.786;2023-02-05T05:54:16;6.60;;;3.90;;
67757;SDS011;54562;47.620;18.786;2023-02-05T05:57:21;6.20;;;3.80;;
67757;SDS011;54562;47.620;18.786;2023-02-05T06:00:26;7.80;;;3.90;;
67757;SDS011;54562;47.620;18.786;2023-02-05T06:03:31;6.70;;;3.90;;
67757;SDS011;54562;47.620;18.786;2023-02-05T06:06:36;7.40;;;3.80;;
67757;SDS011;54562;47.620;18.786;2023-02-05T06:09:41;7.60;;;4.40;;
67757;SDS011;54562;47.620;18.786;2023-02-05T06:12:46;6.80;;;4.00;;
67757;SDS011;54562;47.620;18.786;2023-02-05T06:15:50;7.00;;;4.10;;
67757;SDS011;54562;47.620;18.786;2023-02-05T06:18:57;7.30;;;3.70;;
67757;SDS011;54562;47.620;18.786;2023-02-05T06:22:02;7.90;;;4.30;;
67757;SDS011;54562;47.620;18.786;2023-02-05T06:25:07;6.80;;;3.70;;
67757;SDS011;54562;47.620;18.786;2023-02-05T06:28:12;6.80;;;4.00;;
67757;SDS011;54562;47.620;18.786;2023-02-05T06:31:17;6.60;;;3.70;;
67757;SDS011;54562;47.620;18.786;2023-02-05T06:34:22;7.90;;;4.60;;
67757;SDS011;54562;47.620;18.786;2023-02-05T06:37:27;9.00;;;4.70;;
67757;SDS011;54562;47.620;18.786;2023-02-05T06:40:49;7.10;;;4.20;;
67757;SDS011;54562;47.620;18.786;2023-02-05T06:43:54;8.40;;;4.50;;
67757;SDS011;54562;47.620;18.786;2023-02-05T06:46:59;7.10;;;4.60;;
67757;SDS011;54562;47.620;18.786;2023-02-05T06:50:05;7.20;;;3.90;;
67757;SDS011;54562;47.620;18.786;2023-02-05T06:53:11;7.80;;;4.50;;
67757;SDS011;54562;47.620;18.786;2023-02-05T06:56:16;7.80;;;4.20;;
67757;SDS011;54562;47.620;18.786;2023-02-05T06:59:22;8.80;;;4.30;;
67757;SDS011;54562;47.620;18.786;2023-02-05T07:02:28;6.50;;;4.00;;
67757;SDS011;54562;47.620;18.786;2023-02-05T07:05:34;6.70;;;3.70;;
67757;SDS011;54562;47.620;18.786;2023-02-05T07:08:40;7.90;;;4.20;;
67757;SDS011;54562;47.620;18.786;2023-02-05T07:11:45;5.60;;;3.60;;
67757;SDS011;54562;47.620;18.786;2023-02-05T07:14:50;8.80;;;3.90;;
67757;SDS011;54562;47.620;18.786;2023-02-05T07:17:55;6.50;;;4.20;;
67757;SDS011;54562;47.620;18.786;2023-02-05T07:21:04;8.30;;;3.90;;
67757;SDS011;54562;47.620;18.786;2023-02-05T07:24:10;6.80;;;3.90;;
67757;SDS011;54562;47.620;18.786;2023-02-05T07:27:15;7.50;;;4.00;;
67757;SDS011;54562;47.620;18.786;2023-02-05T07:30:21;6.70;;;3.60;;
67757;SDS011;54562;47.620;18.786;2023-02-05T07:33:26;8.20;;;3.70;;
67757;SDS011;54562;47.620;18.786;2023-02-05T07:36:31;8.50;;;4.10;;
67757;SDS011;54562;47.620;18.786;2023-02-05T07:39:37;7.80;;;4.60;;
67757;SDS011;54562;47.620;18.786;2023-02-05T07:42:41;7.70;;;4.30;;
67757;SDS011;54562;47.620;18.786;2023-02-05T07:45:46;7.80;;;4.20;;
67757;SDS011;54562;47.620;18.786;2023-02-05T07:48:57;9.90;;;4.40;;
67757;SDS011;54562;47.620;18.786;2023-02-05T07:52:03;5.90;;;3.60;;
67757;SDS011;54562;47.620;18.786;2023-02-05T07:55:09;6.20;;;3.30;;
67757;SDS011;54562;47.620;18.786;2023-02-05T07:58:15;4.70;;;2.90;;
67757;SDS011;54562;47.620;18.786;2023-02-05T08:01:20;7.00;;;3.20;;
67757;SDS011;54562;47.620;18.786;2023-02-05T08:04:25;5.50;;;3.30;;
67757;SDS011;54562;47.620;18.786;2023-02-05T08:07:33;6.90;;;3.90;;
67757;SDS011;54562;47.620;18.786;2023-02-05T08:10:40;6.70;;;3.70;;
67757;SDS011;54562;47.620;18.786;2023-02-05T08:13:48;8.00;;;3.90;;
67757;SDS011;54562;47.620;18.786;2023-02-05T08:16:55;6.20;;;3.60;;
67757;SDS011;54562;47.620;18.786;2023-02-05T08:20:04;6.90;;;3.70;;
67757;SDS011;54562;47.620;18.786;2023-02-05T08:23:18;7.00;;;3.90;;
67757;SDS011;54562;47.620;18.786;2023-02-05T08:26:24;6.90;;;4.20;;
67757;SDS011;54562;47.620;18.786;2023-02-05T08:29:29;5.70;;;2.80;;
67757;SDS011;54562;47.620;18.786;2023-02-05T08:32:34;7.60;;;4.30;;
67757;SDS011;54562;47.620;18.786;2023-02-05T08:35:40;5.00;;;2.90;;
67757;SDS011;54562;47.620;18.786;2023-02-05T08:38:45;6.40;;;3.30;;
67757;SDS011;54562;47.620;18.786;2023-02-05T08:41:51;6.50;;;3.40;;
67757;SDS011;54562;47.620;18.786;2023-02-05T08:44:58;7.70;;;3.40;;
67757;SDS011;54562;47.620;18.786;2023-02-05T08:48:03;6.30;;;3.50;;
67757;SDS011;54562;47.620;18.786;2023-02-05T08:51:10;7.60;;;3.80;;
67757;SDS011;54562;47.620;18.786;2023-02-05T08:54:16;6.20;;;3.50;;
67757;SDS011;54562;47.620;18.786;2023-02-05T08:57:20;7.60;;;3.90;;
67757;SDS011;54562;47.620;18.786;2023-02-05T09:00:30;6.10;;;3.10;;
67757;SDS011;54562;47.620;18.786;2023-02-05T09:03:35;7.00;;;3.60;;
67757;SDS011;54562;47.620;18.786;2023-02-05T09:06:41;5.30;;;3.00;;
67757;SDS011;54562;47.620;18.786;2023-02-05T09:09:46;7.20;;;3.40;;
67757;SDS011;54562;47.620;18.786;2023-02-05T09:12:51;7.20;;;3.60;;
67757;SDS011;54562;47.620;18.786;2023-02-05T09:15:56;6.20;;;2.90;;
67757;SDS011;54562;47.620;18.786;2023-02-05T09:19:01;5.80;;;3.30;;
67757;SDS011;54562;47.620;18.786;2023-02-05T09:22:07;7.70;;;3.80;;
67757;SDS011;54562;47.620;18.786;2023-02-05T09:25:12;6.80;;;3.50;;
67757;SDS011;54562;47.620;18.786;2023-02-05T09:28:17;6.80;;;3.50;;
67757;SDS011;54562;47.620;18.786;2023-02-05T09:31:23;6.50;;;3.20;;
67757;SDS011;54562;47.620;18.786;2023-02-05T09:34:29;5.70;;;3.20;;
67757;SDS011;54562;47.620;18.786;2023-02-05T09:37:35;7.80;;;3.50;;
67757;SDS011;54562;47.620;18.786;2023-02-05T09:40:49;6.10;;;3.40;;
67757;SDS011;54562;47.620;18.786;2023-02-05T09:44:09;5.70;;;2.50;;
67757;SDS011;54562;47.620;18.786;2023-02-05T09:47:22;5.70;;;3.00;;
67757;SDS011;54562;47.620;18.786;2023-02-05T09:50:31;6.30;;;3.10;;
67757;SDS011;54562;47.620;18.786;2023-02-05T09:53:40;4.70;;;2.30;;
67757;SDS011;54562;47.620;18.786;2023-02-05T09:56:50;6.00;;;3.20;;
67757;SDS011;54562;47.620;18.786;2023-02-05T09:59:59;8.20;;;2.90;;
67757;SDS011;54562;47.620;18.786;2023-02-05T10:03:10;6.20;;;3.00;;
67757;SDS011;54562;47.620;18.786;2023-02-05T10:06:50;5.20;;;3.00;;
67757;SDS011;54562;47.620;18.786;2023-02-05T10:10:24;5.60;;;2.80;;
67757;SDS011;54562;47.620;18.786;2023-02-05T10:13:36;5.00;;;2.60;;
67757;SDS011;54562;47.620;18.786;2023-02-05T10:17:00;6.10;;;2.80;;
67757;SDS011;54562;47.620;18.786;2023-02-05T10:20:36;6.10;;;2.90;;
67757;SDS011;54562;47.620;18.786;2023-02-05T10:24:15;6.10;;;3.30;;
67757;SDS011;54562;47.620;18.786;2023-02-05T10:27:37;6.40;;;2.80;;
67757;SDS011;54562;47.620;18.786;2023-02-05T10:30:52;6.30;;;3.00;;
67757;SDS011;54562;47.620;18.786;2023-02-05T10:34:05;6.10;;;2.80;;
67757;SDS011;54562;47.620;18.786;2023-02-05T10:37:29;5.30;;;2.70;;
67757;SDS011;54562;47.620;18.786;2023-02-05T10:40:41;5.20;;;2.90;;
67757;SDS011;54562;47.620;18.786;2023-02-05T10:43:50;6.60;;;3.20;;
67757;SDS011;54562;47.620;18.786;2023-02-05T10:47:06;6.60;;;2.90;;
67757;SDS011;54562;47.620;18.786;2023-02-05T10:50:22;6.70;;;3.70;;
67757;SDS011;54562;47.620;18.786;2023-02-05T10:53:30;6.80;;;3.30;;
67757;SDS011;54562;47.620;18.786;2023-02-05T10:56:36;7.00;;;3.40;;
67757;SDS011;54562;47.620;18.786;2023-02-05T10:59:51;6.50;;;3.40;;
67757;SDS011;54562;47.620;18.786;2023-02-05T11:02:58;5.10;;;2.80;;
67757;SDS011;54562;47.620;18.786;2023-02-05T11:06:09;6.40;;;3.30;;
67757;SDS011;54562;47.620;18.786;2023-02-05T11:09:32;5.80;;;3.00;;
67757;SDS011;54562;47.620;18.786;2023-02-05T11:12:44;6.00;;;3.40;;
67757;SDS011;54562;47.620;18.786;2023-02-05T11:15:54;6.90;;;3.50;;
67757;SDS011;54562;47.620;18.786;2023-02-05T11:19:01;6.70;;;3.50;;
67757;SDS011;54562;47.620;18.786;2023-02-05T11:22:08;6.80;;;3.50;;
67757;SDS011;54562;47.620;18.786;2023-02-05T11:25:29;6.90;;;3.00;;
67757;SDS011;54562;47.620;18.786;2023-02-05T11:28:35;6.30;;;3.20;;
67757;SDS011;54562;47.620;18.786;2023-02-05T11:31:55;8.00;;;4.50;;
67757;SDS011;54562;47.620;18.786;2023-02-05T11:35:20;8.00;;;3.80;;
67757;SDS011;54562;47.620;18.786;2023-02-05T11:38:32;7.10;;;3.70;;
67757;SDS011;54562;47.620;18.786;2023-02-05T11:41:46;6.20;;;3.40;;
67757;SDS011;54562;47.620;18.786;2023-02-05T11:44:55;6.30;;;3.20;;
67757;SDS011;54562;47.620;18.786;2023-02-05T11:48:04;5.10;;;2.50;;
67757;SDS011;54562;47.620;18.786;2023-02-05T11:51:40;6.30;;;3.30;;
67757;SDS011;54562;47.620;18.786;2023-02-05T11:54:48;6.30;;;3.00;;
67757;SDS011;54562;47.620;18.786;2023-02-05T11:57:59;7.20;;;3.40;;
67757;SDS011;54562;47.620;18.786;2023-02-05T12:01:20;5.40;;;2.80;;
67757;SDS011;54562;47.620;18.786;2023-02-05T12:04:30;6.00;;;2.80;;
67757;SDS011;54562;47.620;18.786;2023-02-05T12:07:53;5.40;;;2.80;;
67757;SDS011;54562;47.620;18.786;2023-02-05T12:15:06;4.90;;;2.60;;
67757;SDS011;54562;47.620;18.786;2023-02-05T12:21:39;6.00;;;2.90;;
67757;SDS011;54562;47.620;18.786;2023-02-05T12:25:11;4.90;;;2.60;;
67757;SDS011;54562;47.620;18.786;2023-02-05T12:28:28;5.20;;;2.60;;
67757;SDS011;54562;47.620;18.786;2023-02-05T12:31:54;6.00;;;2.80;;
67757;SDS011;54562;47.620;18.786;2023-02-05T12:35:20;6.00;;;2.70;;
67757;SDS011;54562;47.620;18.786;2023-02-05T12:38:46;5.00;;;2.50;;
67757;SDS011;54562;47.620;18.786;2023-02-05T12:42:08;5.00;;;2.50;;
67757;SDS011;54562;47.620;18.786;2023-02-05T12:45:33;7.20;;;3.90;;
67757;SDS011;54562;47.620;18.786;2023-02-05T12:49:02;6.00;;;2.90;;
67757;SDS011;54562;47.620;18.786;2023-02-05T12:52:27;5.30;;;2.60;;
67757;SDS011;54562;47.620;18.786;2023-02-05T12:55:50;5.40;;;2.80;;
67757;SDS011;54562;47.620;18.786;2023-02-05T12:59:14;6.30;;;2.80;;
67757;SDS011;54562;47.620;18.786;2023-02-05T13:02:37;5.80;;;2.70;;
67757;SDS011;54562;47.620;18.786;2023-02-05T13:09:07;4.70;;;2.20;;
67757;SDS011;54562;47.620;18.786;2023-02-05T13:12:22;5.40;;;2.40;;
67757;SDS011;54562;47.620;18.786;2023-02-05T13:15:33;5.10;;;2.50;;
67757;SDS011;54562;47.620;18.786;2023-02-05T13:18:45;5.30;;;2.60;;
67757;SDS011;54562;47.620;18.786;2023-02-05T13:21:58;5.40;;;2.50;;
67757;SDS011;54562;47.620;18.786;2023-02-05T13:25:29;5.30;;;2.50;;
67757;SDS011;54562;47.620;18.786;2023-02-05T13:29:01;4.90;;;2.40;;
67757;SDS011;54562;47.620;18.786;2023-02-05T13:32:13;5.60;;;2.30;;
67757;SDS011;54562;47.620;18.786;2023-02-05T13:38:38;5.60;;;2.40;;
67757;SDS011;54562;47.620;18.786;2023-02-05T13:42:12;4.80;;;2.40;;
67757;SDS011;54562;47.620;18.786;2023-02-05T13:45:47;5.10;;;2.40;;
67757;SDS011;54562;47.620;18.786;2023-02-05T13:49:33;5.10;;;2.00;;
67757;SDS011;54562;47.620;18.786;2023-02-05T13:53:15;4.80;;;2.30;;
67757;SDS011;54562;47.620;18.786;2023-02-05T13:56:38;5.40;;;2.30;;
67757;SDS011;54562;47.620;18.786;2023-02-05T13:59:51;4.50;;;2.40;;
67757;SDS011;54562;47.620;18.786;2023-02-05T14:02:58;5.20;;;2.50;;
67757;SDS011;54562;47.620;18.786;2023-02-05T14:06:22;4.60;;;2.30;;
67757;SDS011;54562;47.620;18.786;2023-02-05T14:09:36;5.10;;;2.40;;
67757;SDS011;54562;47.620;18.786;2023-02-05T14:12:44;4.30;;;2.20;;
67757;SDS011;54562;47.620;18.786;2023-02-05T14:15:49;4.90;;;2.30;;
67757;SDS011;54562;47.620;18.786;2023-02-05T14:19:11;5.00;;;2.40;;
67757;SDS011;54562;47.620;18.786;2023-02-05T14:22:35;4.90;;;2.30;;
67757;SDS011;54562;47.620;18.786;2023-02-05T14:26:07;4.60;;;2.40;;
67757;SDS011;54562;47.620;18.786;2023-02-05T14:29:40;5.40;;;2.40;;
67757;SDS011;54562;47.620;18.786;2023-02-05T14:33:00;5.80;;;2.40;;
67757;SDS011;54562;47.620;18.786;2023-02-05T14:36:35;5.50;;;2.40;;
67757;SDS011;54562;47.620;18.786;2023-02-05T14:39:45;5.00;;;2.50;;
67757;SDS011;54562;47.620;18.786;2023-02-05T14:42:53;4.70;;;2.20;;
67757;SDS011;54562;47.620;18.786;2023-02-05T14:46:26;4.80;;;2.10;;
67757;SDS011;54562;47.620;18.786;2023-02-05T14:49:41;4.90;;;2.50;;
67757;SDS011;54562;47.620;18.786;2023-02-05T14:52:50;4.70;;;2.20;;
67757;SDS011;54562;47.620;18.786;2023-02-05T14:55:58;6.30;;;2.70;;
67757;SDS011;54562;47.620;18.786;2023-02-05T14:59:15;5.80;;;2.80;;
67757;SDS011;54562;47.620;18.786;2023-02-05T15:09:49;5.00;;;2.60;;
67757;SDS011;54562;47.620;18.786;2023-02-05T15:13:07;6.00;;;3.00;;
67757;SDS011;54562;47.620;18.786;2023-02-05T15:16:20;5.20;;;2.80;;
67757;SDS011;54562;47.620;18.786;2023-02-05T15:19:25;5.60;;;3.00;;
67757;SDS011;54562;47.620;18.786;2023-02-05T15:22:35;5.70;;;2.90;;
67757;SDS011;54562;47.620;18.786;2023-02-05T15:25:44;5.70;;;2.80;;
67757;SDS011;54562;47.620;18.786;2023-02-05T15:29:03;6.60;;;3.00;;
67757;SDS011;54562;47.620;18.786;2023-02-05T15:32:17;6.30;;;3.10;;
67757;SDS011;54562;47.620;18.786;2023-02-05T15:35:29;5.30;;;3.10;;
67757;SDS011;54562;47.620;18.786;2023-02-05T15:38:43;6.90;;;3.50;;
67757;SDS011;54562;47.620;18.786;2023-02-05T15:41:54;7.70;;;3.70;;
67757;SDS011;54562;47.620;18.786;2023-02-05T15:45:20;6.30;;;3.40;;
67757;SDS011;54562;47.620;18.786;2023-02-05T15:48:29;8.40;;;3.80;;
67757;SDS011;54562;47.620;18.786;2023-02-05T15:51:37;6.50;;;3.40;;
67757;SDS011;54562;47.620;18.786;2023-02-05T15:54:43;7.40;;;3.80;;
67757;SDS011;54562;47.620;18.786;2023-02-05T15:57:49;7.00;;;3.80;;
67757;SDS011;54562;47.620;18.786;2023-02-05T16:00:57;7.00;;;3.80;;
67757;SDS011;54562;47.620;18.786;2023-02-05T16:04:16;8.30;;;3.70;;
67757;SDS011;54562;47.620;18.786;2023-02-05T16:10:31;6.80;;;3.40;;
67757;SDS011;54562;47.620;18.786;2023-02-05T16:13:38;7.40;;;3.90;;
67757;SDS011;54562;47.620;18.786;2023-02-05T16:16:51;6.50;;;3.80;;
67757;SDS011;54562;47.620;18.786;2023-02-05T16:20:15;7.40;;;4.10;;
67757;SDS011;54562;47.620;18.786;2023-02-05T16:23:28;7.80;;;4.30;;
67757;SDS011;54562;47.620;18.786;2023-02-05T16:26:38;9.80;;;4.80;;
67757;SDS011;54562;47.620;18.786;2023-02-05T16:29:51;8.50;;;4.10;;
67757;SDS011;54562;47.620;18.786;2023-02-05T16:33:02;9.40;;;4.10;;
67757;SDS011;54562;47.620;18.786;2023-02-05T16:36:15;7.50;;;4.30;;
67757;SDS011;54562;47.620;18.786;2023-02-05T16:39:25;8.20;;;4.40;;
67757;SDS011;54562;47.620;18.786;2023-02-05T16:42:37;8.10;;;4.20;;
67757;SDS011;54562;47.620;18.786;2023-02-05T16:49:31;7.00;;;3.70;;
67757;SDS011;54562;47.620;18.786;2023-02-05T16:52:36;8.20;;;4.20;;
67757;SDS011;54562;47.620;18.786;2023-02-05T16:55:43;7.60;;;3.90;;
67757;SDS011;54562;47.620;18.786;2023-02-05T16:58:50;7.10;;;4.40;;
67757;SDS011;54562;47.620;18.786;2023-02-05T17:01:59;7.30;;;4.20;;
67757;SDS011;54562;47.620;18.786;2023-02-05T17:05:08;9.10;;;4.60;;
67757;SDS011;54562;47.620;18.786;2023-02-05T17:08:31;8.00;;;4.50;;
67757;SDS011;54562;47.620;18.786;2023-02-05T17:11:40;8.90;;;4.90;;
67757;SDS011;54562;47.620;18.786;2023-02-05T17:14:53;8.40;;;4.70;;
67757;SDS011;54562;47.620;18.786;2023-02-05T17:18:18;9.30;;;4.70;;
67757;SDS011;54562;47.620;18.786;2023-02-05T17:21:29;8.70;;;5.20;;
67757;SDS011;54562;47.620;18.786;2023-02-05T17:24:35;11.20;;;5.30;;
67757;SDS011;54562;47.620;18.786;2023-02-05T17:27:41;8.40;;;5.00;;
67757;SDS011;54562;47.620;18.786;2023-02-05T17:30:48;11.00;;;5.10;;
67757;SDS011;54562;47.620;18.786;2023-02-05T17:33:55;8.50;;;4.80;;
67757;SDS011;54562;47.620;18.786;2023-02-05T17:37:02;9.10;;;5.40;;
67757;SDS011;54562;47.620;18.786;2023-02-05T17:40:10;10.00;;;5.30;;
67757;SDS011;54562;47.620;18.786;2023-02-05T17:43:16;9.60;;;4.80;;
67757;SDS011;54562;47.620;18.786;2023-02-05T17:46:21;9.50;;;5.00;;
67757;SDS011;54562;47.620;18.786;2023-02-05T17:49:27;9.80;;;5.30;;
67757;SDS011;54562;47.620;18.786;2023-02-05T17:52:32;8.10;;;4.40;;
67757;SDS011;54562;47.620;18.786;2023-02-05T17:55:38;8.50;;;4.80;;
67757;SDS011;54562;47.620;18.786;2023-02-05T17:58:44;9.70;;;5.20;;
67757;SDS011;54562;47.620;18.786;2023-02-05T18:01:50;9.90;;;5.00;;
67757;SDS011;54562;47.620;18.786;2023-02-05T18:04:56;9.40;;;4.60;;
67757;SDS011;54562;47.620;18.786;2023-02-05T18:08:01;10.10;;;4.90;;
67757;SDS011;54562;47.620;18.786;2023-02-05T18:11:08;8.10;;;4.70;;
67757;SDS011;54562;47.620;18.786;2023-02-05T18:14:13;9.50;;;4.80;;
67757;SDS011;54562;47.620;18.786;2023-02-05T18:17:19;7.70;;;4.20;;
67757;SDS011;54562;47.620;18.786;2023-02-05T18:20:25;9.80;;;5.00;;
67757;SDS011;54562;47.620;18.786;2023-02-05T18:23:30;7.90;;;4.90;;
67757;SDS011;54562;47.620;18.786;2023-02-05T18:26:36;9.20;;;5.00;;
67757;SDS011;54562;47.620;18.786;2023-02-05T18:29:42;8.80;;;4.80;;
67757;SDS011;54562;47.620;18.786;2023-02-05T18:32:47;8.30;;;4.90;;
67757;SDS011;54562;47.620;18.786;2023-02-05T18:35:56;8.80;;;4.50;;
67757;SDS011;54562;47.620;18.786;2023-02-05T18:39:04;9.40;;;5.10;;
67757;SDS011;54562;47.620;18.786;2023-02-05T18:42:09;9.70;;;4.60;;
67757;SDS011;54562;47.620;18.786;2023-02-05T18:45:15;10.70;;;5.10;;
67757;SDS011;54562;47.620;18.786;2023-02-05T18:48:20;8.30;;;4.70;;
67757;SDS011;54562;47.620;18.786;2023-02-05T18:51:26;9.60;;;4.70;;
67757;SDS011;54562;47.620;18.786;2023-02-05T18:54:32;9.20;;;4.80;;
67757;SDS011;54562;47.620;18.786;2023-02-05T18:57:38;9.10;;;4.90;;
67757;SDS011;54562;47.620;18.786;2023-02-05T19:00:43;9.00;;;5.10;;
67757;SDS011;54562;47.620;18.786;2023-02-05T19:03:48;8.10;;;4.80;;
67757;SDS011;54562;47.620;18.786;2023-02-05T19:06:55;8.40;;;5.00;;
67757;SDS011;54562;47.620;18.786;2023-02-05T19:10:01;10.30;;;5.10;;
67757;SDS011;54562;47.620;18.786;2023-02-05T19:13:06;10.10;;;5.40;;
67757;SDS011;54562;47.620;18.786;2023-02-05T19:16:13;8.50;;;4.90;;
67757;SDS011;54562;47.620;18.786;2023-02-05T19:19:21;11.20;;;5.90;;